sensor_id;sensor_type;location;lat;lon;timestamp;temperature;humidity
44170;DHT22;29836;52.286;9.576;2022-11-20T00:02:25;-5.00;99.90
44170;DHT22;29836;52.286;9.576;2022-11-20T00:04:51;-5.00;99.90
44170;DHT22;29836;52.286;9.576;2022-11-20T00:07:16;-5.00;99.90
44170;DHT22;29836;52.286;9.576;2022-11-20T00:09:42;-5.00;99.90
44170;DHT22;29836;52.286;9.576;2022-11-20T00:12:07;-5.00;99.90
44170;DHT22;29836;52.286;9.576;2022-11-20T00:14:33;-5.00;99.90
44170;DHT22;29836;52.286;9.576;2022-11-20T00:16:59;-5.00;99.90
44170;DHT22;29836;52.286;9.576;2022-11-20T00:19:24;-5.10;99.90
44170;DHT22;29836;52.286;9.576;2022-11-20T00:21:50;-5.00;99.90
44170;DHT22;29836;52.286;9.576;2022-11-20T00:24:19;-5.10;99.90
44170;DHT22;29836;52.286;9.576;2022-11-20T00:26:44;-5.00;99.90
44170;DHT22;29836;52.286;9.576;2022-11-20T00:29:10;-5.10;99.90
44170;DHT22;29836;52.286;9.576;2022-11-20T00:31:36;-5.10;99.90
44170;DHT22;29836;52.286;9.576;2022-11-20T00:34:02;-5.20;99.90
44170;DHT22;29836;52.286;9.576;2022-11-20T00:36:29;-5.20;99.90
44170;DHT22;29836;52.286;9.576;2022-11-20T00:38:57;-5.20;99.90
44170;DHT22;29836;52.286;9.576;2022-11-20T00:41:24;-5.20;99.90
44170;DHT22;29836;52.286;9.576;2022-11-20T00:43:52;-5.20;99.90
44170;DHT22;29836;52.286;9.576;2022-11-20T00:46:20;-5.20;99.90
44170;DHT22;29836;52.286;9.576;2022-11-20T00:48:47;-5.30;99.90
44170;DHT22;29836;52.286;9.576;2022-11-20T00:51:15;-5.20;99.90
44170;DHT22;29836;52.286;9.576;2022-11-20T00:53:41;-5.20;99.90
44170;DHT22;29836;52.286;9.576;2022-11-20T00:56:11;-5.20;99.90
44170;DHT22;29836;52.286;9.576;2022-11-20T00:58:39;-5.20;99.90
44170;DHT22;29836;52.286;9.576;2022-11-20T01:03:35;-5.20;99.90
44170;DHT22;29836;52.286;9.576;2022-11-20T01:06:06;-5.20;99.90
44170;DHT22;29836;52.286;9.576;2022-11-20T01:08:33;-5.20;99.90
44170;DHT22;29836;52.286;9.576;2022-11-20T01:11:01;-5.10;99.90
44170;DHT22;29836;52.286;9.576;2022-11-20T01:13:28;-4.90;99.90
44170;DHT22;29836;52.286;9.576;2022-11-20T01:18:37;-4.70;99.90
44170;DHT22;29836;52.286;9.576;2022-11-20T01:21:08;-4.80;99.90
44170;DHT22;29836;52.286;9.576;2022-11-20T01:23:35;-4.80;99.90
44170;DHT22;29836;52.286;9.576;2022-11-20T01:26:04;-4.90;99.90
44170;DHT22;29836;52.286;9.576;2022-11-20T01:28:30;-5.00;99.90
44170;DHT22;29836;52.286;9.576;2022-11-20T01:30:56;-5.10;99.90
44170;DHT22;29836;52.286;9.576;2022-11-20T01:33:22;-5.20;99.90
44170;DHT22;29836;52.286;9.576;2022-11-20T01:35:48;-5.30;99.90
44170;DHT22;29836;52.286;9.576;2022-11-20T01:38:15;-5.40;99.90
44170;DHT22;29836;52.286;9.576;2022-11-20T01:40:41;-5.40;99.90
44170;DHT22;29836;52.286;9.576;2022-11-20T01:43:15;-5.50;99.90
44170;DHT22;29836;52.286;9.576;2022-11-20T01:45:58;-5.50;99.90
44170;DHT22;29836;52.286;9.576;2022-11-20T01:48:26;-5.20;99.90
44170;DHT22;29836;52.286;9.576;2022-11-20T01:50:54;-5.20;99.90
44170;DHT22;29836;52.286;9.576;2022-11-20T01:53:23;-5.20;99.90
44170;DHT22;29836;52.286;9.576;2022-11-20T01:55:53;-5.10;99.90
44170;DHT22;29836;52.286;9.576;2022-11-20T01:58:27;-5.10;99.90
44170;DHT22;29836;52.286;9.576;2022-11-20T02:00:54;-5.10;99.90
44170;DHT22;29836;52.286;9.576;2022-11-20T02:03:20;-5.20;99.90
44170;DHT22;29836;52.286;9.576;2022-11-20T02:08:21;-5.20;99.90
44170;DHT22;29836;52.286;9.576;2022-11-20T02:10:48;-5.20;99.90
44170;DHT22;29836;52.286;9.576;2022-11-20T02:13:14;-5.10;99.90
44170;DHT22;29836;52.286;9.576;2022-11-20T02:15:58;-5.10;99.90
44170;DHT22;29836;52.286;9.576;2022-11-20T02:18:24;-5.00;99.90
44170;DHT22;29836;52.286;9.576;2022-11-20T02:20:54;-5.00;99.90
44170;DHT22;29836;52.286;9.576;2022-11-20T02:25:49;-5.00;99.90
44170;DHT22;29836;52.286;9.576;2022-11-20T02:28:17;-5.10;99.90
44170;DHT22;29836;52.286;9.576;2022-11-20T02:30:43;-5.10;99.90
44170;DHT22;29836;52.286;9.576;2022-11-20T02:33:09;-5.10;99.90
44170;DHT22;29836;52.286;9.576;2022-11-20T02:38:01;-5.10;99.90
44170;DHT22;29836;52.286;9.576;2022-11-20T02:40:28;-5.10;99.90
44170;DHT22;29836;52.286;9.576;2022-11-20T02:42:57;-5.10;99.90
44170;DHT22;29836;52.286;9.576;2022-11-20T02:45:23;-5.10;99.90
44170;DHT22;29836;52.286;9.576;2022-11-20T02:47:50;-5.10;99.90
44170;DHT22;29836;52.286;9.576;2022-11-20T02:50:16;-5.20;99.90
44170;DHT22;29836;52.286;9.576;2022-11-20T02:52:41;-5.20;99.90
44170;DHT22;29836;52.286;9.576;2022-11-20T02:55:07;-5.20;99.90
44170;DHT22;29836;52.286;9.576;2022-11-20T02:57:33;-5.20;99.90
44170;DHT22;29836;52.286;9.576;2022-11-20T02:59:58;-5.30;99.90
44170;DHT22;29836;52.286;9.576;2022-11-20T03:02:24;-5.40;99.90
44170;DHT22;29836;52.286;9.576;2022-11-20T03:04:50;-5.40;99.90
44170;DHT22;29836;52.286;9.576;2022-11-20T03:07:15;-5.40;99.90
44170;DHT22;29836;52.286;9.576;2022-11-20T03:09:41;-5.40;99.90
44170;DHT22;29836;52.286;9.576;2022-11-20T03:12:06;-5.30;99.90
44170;DHT22;29836;52.286;9.576;2022-11-20T03:14:32;-5.20;99.90
44170;DHT22;29836;52.286;9.576;2022-11-20T03:16:58;-5.10;99.90
44170;DHT22;29836;52.286;9.576;2022-11-20T03:19:23;-5.10;99.90
44170;DHT22;29836;52.286;9.576;2022-11-20T03:21:49;-5.10;99.90
44170;DHT22;29836;52.286;9.576;2022-11-20T03:24:15;-5.10;99.90
44170;DHT22;29836;52.286;9.576;2022-11-20T03:26:41;-5.00;99.90
44170;DHT22;29836;52.286;9.576;2022-11-20T03:29:07;-5.10;99.90
44170;DHT22;29836;52.286;9.576;2022-11-20T03:31:38;-5.20;99.90
44170;DHT22;29836;52.286;9.576;2022-11-20T03:34:06;-5.20;99.90
44170;DHT22;29836;52.286;9.576;2022-11-20T03:36:32;-5.30;99.90
44170;DHT22;29836;52.286;9.576;2022-11-20T03:38:58;-5.40;99.90
44170;DHT22;29836;52.286;9.576;2022-11-20T03:41:26;-5.40;99.90
44170;DHT22;29836;52.286;9.576;2022-11-20T03:44:03;-5.40;99.90
44170;DHT22;29836;52.286;9.576;2022-11-20T03:46:30;-5.50;99.90
44170;DHT22;29836;52.286;9.576;2022-11-20T03:48:56;-5.50;99.90
44170;DHT22;29836;52.286;9.576;2022-11-20T03:51:26;-5.40;99.90
44170;DHT22;29836;52.286;9.576;2022-11-20T03:53:55;-5.40;99.90
44170;DHT22;29836;52.286;9.576;2022-11-20T03:56:25;-5.30;99.90
44170;DHT22;29836;52.286;9.576;2022-11-20T03:58:51;-5.30;99.90
44170;DHT22;29836;52.286;9.576;2022-11-20T04:01:22;-5.40;99.90
44170;DHT22;29836;52.286;9.576;2022-11-20T04:03:49;-5.40;99.90
44170;DHT22;29836;52.286;9.576;2022-11-20T04:06:19;-5.40;99.90
44170;DHT22;29836;52.286;9.576;2022-11-20T04:08:45;-5.40;99.90
44170;DHT22;29836;52.286;9.576;2022-11-20T04:11:23;-5.40;99.90
44170;DHT22;29836;52.286;9.576;2022-11-20T04:14:00;-5.40;99.90
44170;DHT22;29836;52.286;9.576;2022-11-20T04:16:28;-5.40;99.90
44170;DHT22;29836;52.286;9.576;2022-11-20T04:18:56;-5.40;99.90
44170;DHT22;29836;52.286;9.576;2022-11-20T04:21:22;-5.40;99.90
44170;DHT22;29836;52.286;9.576;2022-11-20T04:23:50;-5.40;99.90
44170;DHT22;29836;52.286;9.576;2022-11-20T04:26:16;-5.40;99.90
44170;DHT22;29836;52.286;9.576;2022-11-20T04:28:41;-5.40;99.90
44170;DHT22;29836;52.286;9.576;2022-11-20T04:31:09;-5.20;99.90
44170;DHT22;29836;52.286;9.576;2022-11-20T04:33:35;-5.00;99.90
44170;DHT22;29836;52.286;9.576;2022-11-20T04:36:12;-4.90;99.90
44170;DHT22;29836;52.286;9.576;2022-11-20T04:38:38;-4.90;99.90
44170;DHT22;29836;52.286;9.576;2022-11-20T04:41:06;-4.80;99.90
44170;DHT22;29836;52.286;9.576;2022-11-20T04:43:32;-4.70;99.90
44170;DHT22;29836;52.286;9.576;2022-11-20T04:45:59;-4.70;99.90
44170;DHT22;29836;52.286;9.576;2022-11-20T04:48:26;-4.60;99.90
44170;DHT22;29836;52.286;9.576;2022-11-20T04:50:52;-4.60;99.90
44170;DHT22;29836;52.286;9.576;2022-11-20T04:53:19;-4.60;99.90
44170;DHT22;29836;52.286;9.576;2022-11-20T04:55:45;-4.60;99.90
44170;DHT22;29836;52.286;9.576;2022-11-20T04:58:11;-4.70;99.90
44170;DHT22;29836;52.286;9.576;2022-11-20T05:00:37;-4.80;99.90
44170;DHT22;29836;52.286;9.576;2022-11-20T05:03:02;-4.80;99.90
44170;DHT22;29836;52.286;9.576;2022-11-20T05:05:28;-4.80;99.90
44170;DHT22;29836;52.286;9.576;2022-11-20T05:07:56;-4.80;99.90
44170;DHT22;29836;52.286;9.576;2022-11-20T05:10:23;-4.80;99.90
44170;DHT22;29836;52.286;9.576;2022-11-20T05:12:49;-4.70;99.90
44170;DHT22;29836;52.286;9.576;2022-11-20T05:15:14;-4.70;99.90
44170;DHT22;29836;52.286;9.576;2022-11-20T05:17:40;-4.80;99.90
44170;DHT22;29836;52.286;9.576;2022-11-20T05:20:06;-4.70;99.90
44170;DHT22;29836;52.286;9.576;2022-11-20T05:22:32;-4.80;99.90
44170;DHT22;29836;52.286;9.576;2022-11-20T05:24:57;-4.90;99.90
44170;DHT22;29836;52.286;9.576;2022-11-20T05:27:23;-4.90;99.90
44170;DHT22;29836;52.286;9.576;2022-11-20T05:29:48;-5.00;99.90
44170;DHT22;29836;52.286;9.576;2022-11-20T05:32:14;-5.00;99.90
44170;DHT22;29836;52.286;9.576;2022-11-20T05:34:39;-5.00;99.90
44170;DHT22;29836;52.286;9.576;2022-11-20T05:37:05;-5.10;99.90
44170;DHT22;29836;52.286;9.576;2022-11-20T05:39:30;-5.10;99.90
44170;DHT22;29836;52.286;9.576;2022-11-20T05:41:56;-5.10;99.90
44170;DHT22;29836;52.286;9.576;2022-11-20T05:44:40;-5.10;99.90
44170;DHT22;29836;52.286;9.576;2022-11-20T05:47:06;-5.10;99.90
44170;DHT22;29836;52.286;9.576;2022-11-20T05:49:32;-5.00;99.90
44170;DHT22;29836;52.286;9.576;2022-11-20T05:51:58;-5.00;99.90
44170;DHT22;29836;52.286;9.576;2022-11-20T05:54:23;-4.90;99.90
44170;DHT22;29836;52.286;9.576;2022-11-20T05:56:49;-4.90;99.90
44170;DHT22;29836;52.286;9.576;2022-11-20T05:59:15;-4.80;99.90
44170;DHT22;29836;52.286;9.576;2022-11-20T06:01:40;-4.70;99.90
44170;DHT22;29836;52.286;9.576;2022-11-20T06:04:06;-4.60;99.90
44170;DHT22;29836;52.286;9.576;2022-11-20T06:06:31;-4.60;99.90
44170;DHT22;29836;52.286;9.576;2022-11-20T06:08:57;-4.50;99.90
44170;DHT22;29836;52.286;9.576;2022-11-20T06:11:24;-4.40;99.90
44170;DHT22;29836;52.286;9.576;2022-11-20T06:13:50;-4.40;99.90
44170;DHT22;29836;52.286;9.576;2022-11-20T06:16:18;-4.30;99.90
44170;DHT22;29836;52.286;9.576;2022-11-20T06:18:44;-4.30;99.90
44170;DHT22;29836;52.286;9.576;2022-11-20T06:21:13;-4.20;99.90
44170;DHT22;29836;52.286;9.576;2022-11-20T06:23:39;-4.20;99.90
44170;DHT22;29836;52.286;9.576;2022-11-20T06:26:10;-4.20;99.90
44170;DHT22;29836;52.286;9.576;2022-11-20T06:28:35;-4.10;99.90
44170;DHT22;29836;52.286;9.576;2022-11-20T06:31:02;-4.10;99.90
44170;DHT22;29836;52.286;9.576;2022-11-20T06:33:28;-4.10;99.90
44170;DHT22;29836;52.286;9.576;2022-11-20T06:35:57;-4.00;99.90
44170;DHT22;29836;52.286;9.576;2022-11-20T06:38:23;-4.00;99.90
44170;DHT22;29836;52.286;9.576;2022-11-20T06:40:49;-4.00;99.90
44170;DHT22;29836;52.286;9.576;2022-11-20T06:43:14;-3.90;99.90
44170;DHT22;29836;52.286;9.576;2022-11-20T06:45:40;-3.90;99.90
44170;DHT22;29836;52.286;9.576;2022-11-20T06:48:06;-3.80;99.90
44170;DHT22;29836;52.286;9.576;2022-11-20T06:50:31;-3.70;99.90
44170;DHT22;29836;52.286;9.576;2022-11-20T06:53:00;-3.70;99.90
44170;DHT22;29836;52.286;9.576;2022-11-20T06:55:26;-3.60;99.90
44170;DHT22;29836;52.286;9.576;2022-11-20T06:57:52;-3.60;99.90
44170;DHT22;29836;52.286;9.576;2022-11-20T07:00:17;-3.60;99.90
44170;DHT22;29836;52.286;9.576;2022-11-20T07:02:43;-3.50;99.90
44170;DHT22;29836;52.286;9.576;2022-11-20T07:05:09;-3.50;99.90
44170;DHT22;29836;52.286;9.576;2022-11-20T07:07:35;-3.40;99.90
44170;DHT22;29836;52.286;9.576;2022-11-20T07:10:01;-3.40;99.90
44170;DHT22;29836;52.286;9.576;2022-11-20T07:12:26;-3.30;99.90
44170;DHT22;29836;52.286;9.576;2022-11-20T07:14:52;-3.30;99.90
44170;DHT22;29836;52.286;9.576;2022-11-20T07:17:18;-3.20;99.90
44170;DHT22;29836;52.286;9.576;2022-11-20T07:19:44;-3.10;99.90
44170;DHT22;29836;52.286;9.576;2022-11-20T07:22:09;-3.10;99.90
44170;DHT22;29836;52.286;9.576;2022-11-20T07:24:35;-3.00;99.90
44170;DHT22;29836;52.286;9.576;2022-11-20T07:27:00;-3.00;99.90
44170;DHT22;29836;52.286;9.576;2022-11-20T07:29:26;-3.10;99.90
44170;DHT22;29836;52.286;9.576;2022-11-20T07:31:51;-3.20;99.90
44170;DHT22;29836;52.286;9.576;2022-11-20T07:34:17;-3.10;99.90
44170;DHT22;29836;52.286;9.576;2022-11-20T07:36:42;-3.10;99.90
44170;DHT22;29836;52.286;9.576;2022-11-20T07:39:08;-3.10;99.90
44170;DHT22;29836;52.286;9.576;2022-11-20T07:41:34;-3.10;99.90
44170;DHT22;29836;52.286;9.576;2022-11-20T07:44:00;-3.00;99.90
44170;DHT22;29836;52.286;9.576;2022-11-20T07:46:26;-3.00;99.90
44170;DHT22;29836;52.286;9.576;2022-11-20T07:48:52;-3.00;99.90
44170;DHT22;29836;52.286;9.576;2022-11-20T07:51:17;-2.90;99.90
44170;DHT22;29836;52.286;9.576;2022-11-20T07:53:43;-2.80;99.90
44170;DHT22;29836;52.286;9.576;2022-11-20T07:56:08;-2.70;99.90
44170;DHT22;29836;52.286;9.576;2022-11-20T07:58:34;-2.70;99.90
44170;DHT22;29836;52.286;9.576;2022-11-20T08:01:07;-2.60;99.90
44170;DHT22;29836;52.286;9.576;2022-11-20T08:03:34;-2.60;99.90
44170;DHT22;29836;52.286;9.576;2022-11-20T08:06:00;-2.50;99.90
44170;DHT22;29836;52.286;9.576;2022-11-20T08:08:26;-2.50;99.90
44170;DHT22;29836;52.286;9.576;2022-11-20T08:10:52;-2.40;99.90
44170;DHT22;29836;52.286;9.576;2022-11-20T08:13:38;-2.40;99.90
44170;DHT22;29836;52.286;9.576;2022-11-20T08:16:22;-2.30;99.90
44170;DHT22;29836;52.286;9.576;2022-11-20T08:18:48;-2.30;99.90
44170;DHT22;29836;52.286;9.576;2022-11-20T08:21:13;-2.30;99.90
44170;DHT22;29836;52.286;9.576;2022-11-20T08:23:39;-2.20;99.90
44170;DHT22;29836;52.286;9.576;2022-11-20T08:26:04;-2.20;99.90
44170;DHT22;29836;52.286;9.576;2022-11-20T08:28:30;-2.20;99.90
44170;DHT22;29836;52.286;9.576;2022-11-20T08:31:03;-2.20;99.90
44170;DHT22;29836;52.286;9.576;2022-11-20T08:33:29;-2.20;99.90
44170;DHT22;29836;52.286;9.576;2022-11-20T08:36:00;-2.10;99.90
44170;DHT22;29836;52.286;9.576;2022-11-20T08:38:26;-2.10;99.90
44170;DHT22;29836;52.286;9.576;2022-11-20T08:40:51;-2.00;99.90
44170;DHT22;29836;52.286;9.576;2022-11-20T08:43:35;-2.00;99.90
44170;DHT22;29836;52.286;9.576;2022-11-20T08:46:01;-1.90;99.90
44170;DHT22;29836;52.286;9.576;2022-11-20T08:48:27;-1.90;99.90
44170;DHT22;29836;52.286;9.576;2022-11-20T08:50:52;-1.80;99.90
44170;DHT22;29836;52.286;9.576;2022-11-20T08:53:18;-1.70;99.90
44170;DHT22;29836;52.286;9.576;2022-11-20T08:55:43;-1.60;99.90
44170;DHT22;29836;52.286;9.576;2022-11-20T08:58:09;-1.40;99.90
44170;DHT22;29836;52.286;9.576;2022-11-20T09:00:35;-1.20;99.90
44170;DHT22;29836;52.286;9.576;2022-11-20T09:03:00;-1.10;99.90
44170;DHT22;29836;52.286;9.576;2022-11-20T09:05:27;-1.00;99.90
44170;DHT22;29836;52.286;9.576;2022-11-20T09:07:58;-0.90;99.90
44170;DHT22;29836;52.286;9.576;2022-11-20T09:10:27;-0.70;99.90
44170;DHT22;29836;52.286;9.576;2022-11-20T09:12:54;-0.70;99.90
44170;DHT22;29836;52.286;9.576;2022-11-20T09:15:20;-0.60;99.90
44170;DHT22;29836;52.286;9.576;2022-11-20T09:18:00;-0.60;99.90
44170;DHT22;29836;52.286;9.576;2022-11-20T09:20:27;-0.50;99.90
44170;DHT22;29836;52.286;9.576;2022-11-20T09:22:54;-0.50;99.90
44170;DHT22;29836;52.286;9.576;2022-11-20T09:25:20;-0.50;99.90
44170;DHT22;29836;52.286;9.576;2022-11-20T09:27:46;-0.40;99.90
44170;DHT22;29836;52.286;9.576;2022-11-20T09:30:13;-0.30;99.90
44170;DHT22;29836;52.286;9.576;2022-11-20T09:32:39;-0.50;99.90
44170;DHT22;29836;52.286;9.576;2022-11-20T09:35:05;-0.60;99.90
44170;DHT22;29836;52.286;9.576;2022-11-20T09:37:31;-0.70;99.90
44170;DHT22;29836;52.286;9.576;2022-11-20T09:39:56;-0.70;99.90
44170;DHT22;29836;52.286;9.576;2022-11-20T09:42:42;-0.40;99.90
44170;DHT22;29836;52.286;9.576;2022-11-20T09:55:47;8.80;99.50
44170;DHT22;29836;52.286;9.576;2022-11-20T09:58:36;10.60;96.60
44170;DHT22;29836;52.286;9.576;2022-11-20T10:01:12;12.20;88.60
44170;DHT22;29836;52.286;9.576;2022-11-20T10:06:28;10.50;90.10
44170;DHT22;29836;52.286;9.576;2022-11-20T10:17:44;6.30;97.30
44170;DHT22;29836;52.286;9.576;2022-11-20T10:20:32;5.60;94.80
44170;DHT22;29836;52.286;9.576;2022-11-20T10:26:17;5.00;97.90
44170;DHT22;29836;52.286;9.576;2022-11-20T10:29:07;4.90;99.70
44170;DHT22;29836;52.286;9.576;2022-11-20T10:31:38;4.90;99.90
44170;DHT22;29836;52.286;9.576;2022-11-20T10:37:05;4.60;98.70
44170;DHT22;29836;52.286;9.576;2022-11-20T10:42:11;3.90;99.90
44170;DHT22;29836;52.286;9.576;2022-11-20T10:44:47;3.70;99.90
44170;DHT22;29836;52.286;9.576;2022-11-20T10:47:30;3.30;99.90
44170;DHT22;29836;52.286;9.576;2022-11-20T10:50:00;3.00;99.90
44170;DHT22;29836;52.286;9.576;2022-11-20T10:58:10;2.30;99.90
44170;DHT22;29836;52.286;9.576;2022-11-20T11:00:37;2.20;99.90
44170;DHT22;29836;52.286;9.576;2022-11-20T11:05:54;2.40;99.90
44170;DHT22;29836;52.286;9.576;2022-11-20T11:08:22;2.40;99.90
44170;DHT22;29836;52.286;9.576;2022-11-20T11:11:22;2.60;99.90
44170;DHT22;29836;52.286;9.576;2022-11-20T11:13:49;2.60;99.90
44170;DHT22;29836;52.286;9.576;2022-11-20T11:16:32;2.60;99.90
44170;DHT22;29836;52.286;9.576;2022-11-20T11:19:12;2.60;99.90
44170;DHT22;29836;52.286;9.576;2022-11-20T11:21:38;2.80;99.90
44170;DHT22;29836;52.286;9.576;2022-11-20T11:24:19;2.90;99.90
44170;DHT22;29836;52.286;9.576;2022-11-20T11:27:00;3.10;99.90
44170;DHT22;29836;52.286;9.576;2022-11-20T11:29:32;3.00;99.90
44170;DHT22;29836;52.286;9.576;2022-11-20T11:32:24;3.10;99.90
44170;DHT22;29836;52.286;9.576;2022-11-20T11:35:06;3.20;99.90
44170;DHT22;29836;52.286;9.576;2022-11-20T11:37:39;3.20;99.90
44170;DHT22;29836;52.286;9.576;2022-11-20T11:40:05;3.10;99.90
44170;DHT22;29836;52.286;9.576;2022-11-20T11:42:31;3.00;99.90
44170;DHT22;29836;52.286;9.576;2022-11-20T11:44:59;2.90;99.90
44170;DHT22;29836;52.286;9.576;2022-11-20T11:58:18;3.10;99.90
44170;DHT22;29836;52.286;9.576;2022-11-20T12:00:51;3.20;99.90
44170;DHT22;29836;52.286;9.576;2022-11-20T12:03:27;3.40;99.90
44170;DHT22;29836;52.286;9.576;2022-11-20T12:06:08;3.50;99.90
44170;DHT22;29836;52.286;9.576;2022-11-20T12:08:51;3.50;99.90
44170;DHT22;29836;52.286;9.576;2022-11-20T12:11:34;3.50;99.90
44170;DHT22;29836;52.286;9.576;2022-11-20T12:14:33;3.60;99.90
44170;DHT22;29836;52.286;9.576;2022-11-20T12:17:01;3.60;99.90
44170;DHT22;29836;52.286;9.576;2022-11-20T12:19:31;3.60;99.90
44170;DHT22;29836;52.286;9.576;2022-11-20T12:41:22;3.60;99.90
44170;DHT22;29836;52.286;9.576;2022-11-20T12:53:10;3.10;99.90
44170;DHT22;29836;52.286;9.576;2022-11-20T13:00:54;2.40;99.90
44170;DHT22;29836;52.286;9.576;2022-11-20T13:06:16;2.10;99.90
44170;DHT22;29836;52.286;9.576;2022-11-20T13:08:56;2.10;99.90
44170;DHT22;29836;52.286;9.576;2022-11-20T13:18:55;2.80;99.90
44170;DHT22;29836;52.286;9.576;2022-11-20T13:21:35;2.90;99.90
44170;DHT22;29836;52.286;9.576;2022-11-20T13:26:44;3.10;99.90
44170;DHT22;29836;52.286;9.576;2022-11-20T13:29:18;3.00;99.90
44170;DHT22;29836;52.286;9.576;2022-11-20T13:31:45;3.00;99.90
44170;DHT22;29836;52.286;9.576;2022-11-20T13:34:26;2.90;99.90
44170;DHT22;29836;52.286;9.576;2022-11-20T13:36:55;2.80;99.90
44170;DHT22;29836;52.286;9.576;2022-11-20T13:39:29;2.60;99.90
44170;DHT22;29836;52.286;9.576;2022-11-20T13:44:48;2.30;99.90
44170;DHT22;29836;52.286;9.576;2022-11-20T13:47:26;2.20;99.90
44170;DHT22;29836;52.286;9.576;2022-11-20T13:49:54;2.10;99.90
44170;DHT22;29836;52.286;9.576;2022-11-20T14:00:29;2.60;99.90
44170;DHT22;29836;52.286;9.576;2022-11-20T14:05:40;2.70;99.90
44170;DHT22;29836;52.286;9.576;2022-11-20T14:11:24;2.70;99.90
44170;DHT22;29836;52.286;9.576;2022-11-20T14:14:00;2.80;99.90
44170;DHT22;29836;52.286;9.576;2022-11-20T14:16:29;2.70;99.90
44170;DHT22;29836;52.286;9.576;2022-11-20T14:18:56;2.70;99.90
44170;DHT22;29836;52.286;9.576;2022-11-20T14:21:29;2.70;99.90
44170;DHT22;29836;52.286;9.576;2022-11-20T14:24:05;2.60;99.90
44170;DHT22;29836;52.286;9.576;2022-11-20T14:26:32;2.60;99.90
44170;DHT22;29836;52.286;9.576;2022-11-20T14:28:58;2.50;99.90
44170;DHT22;29836;52.286;9.576;2022-11-20T14:31:25;2.40;99.90
44170;DHT22;29836;52.286;9.576;2022-11-20T14:33:55;2.30;99.90
44170;DHT22;29836;52.286;9.576;2022-11-20T14:36:23;2.10;99.90
44170;DHT22;29836;52.286;9.576;2022-11-20T14:38:49;1.90;99.90
44170;DHT22;29836;52.286;9.576;2022-11-20T14:41:23;1.70;99.90
44170;DHT22;29836;52.286;9.576;2022-11-20T14:43:59;1.60;99.90
44170;DHT22;29836;52.286;9.576;2022-11-20T14:46:26;1.40;99.90
44170;DHT22;29836;52.286;9.576;2022-11-20T14:48:57;1.30;99.90
44170;DHT22;29836;52.286;9.576;2022-11-20T14:51:39;1.20;99.90
44170;DHT22;29836;52.286;9.576;2022-11-20T14:56:39;0.70;99.90
44170;DHT22;29836;52.286;9.576;2022-11-20T14:59:04;0.50;99.90
44170;DHT22;29836;52.286;9.576;2022-11-20T15:01:32;0.40;99.90
44170;DHT22;29836;52.286;9.576;2022-11-20T15:04:09;0.30;99.90
44170;DHT22;29836;52.286;9.576;2022-11-20T15:06:35;0.10;99.90
44170;DHT22;29836;52.286;9.576;2022-11-20T15:09:04;0.00;99.90
44170;DHT22;29836;52.286;9.576;2022-11-20T15:11:34;-0.20;99.90
44170;DHT22;29836;52.286;9.576;2022-11-20T15:14:08;-0.40;99.90
44170;DHT22;29836;52.286;9.576;2022-11-20T15:16:34;-0.50;99.90
44170;DHT22;29836;52.286;9.576;2022-11-20T15:19:00;-0.60;99.90
44170;DHT22;29836;52.286;9.576;2022-11-20T15:21:27;-0.80;99.90
44170;DHT22;29836;52.286;9.576;2022-11-20T15:23:53;-1.00;99.90
44170;DHT22;29836;52.286;9.576;2022-11-20T15:26:25;-1.00;99.90
44170;DHT22;29836;52.286;9.576;2022-11-20T15:28:51;-1.00;99.90
44170;DHT22;29836;52.286;9.576;2022-11-20T15:31:19;-1.00;99.90
44170;DHT22;29836;52.286;9.576;2022-11-20T15:33:46;-1.00;99.90
44170;DHT22;29836;52.286;9.576;2022-11-20T15:36:11;-0.90;99.90
44170;DHT22;29836;52.286;9.576;2022-11-20T15:38:37;-0.90;99.90
44170;DHT22;29836;52.286;9.576;2022-11-20T15:41:03;-1.00;99.90
44170;DHT22;29836;52.286;9.576;2022-11-20T15:43:29;-0.90;99.90
44170;DHT22;29836;52.286;9.576;2022-11-20T15:46:04;-0.80;99.90
44170;DHT22;29836;52.286;9.576;2022-11-20T15:48:52;-0.90;99.90
44170;DHT22;29836;52.286;9.576;2022-11-20T15:51:34;-0.90;99.90
44170;DHT22;29836;52.286;9.576;2022-11-20T15:54:00;-0.90;99.90
44170;DHT22;29836;52.286;9.576;2022-11-20T15:56:27;-0.90;99.90
44170;DHT22;29836;52.286;9.576;2022-11-20T15:58:52;-0.90;99.90
44170;DHT22;29836;52.286;9.576;2022-11-20T16:01:21;-0.90;99.90
44170;DHT22;29836;52.286;9.576;2022-11-20T16:03:47;-0.90;99.90
44170;DHT22;29836;52.286;9.576;2022-11-20T16:06:12;-0.70;99.90
44170;DHT22;29836;52.286;9.576;2022-11-20T16:08:38;-0.70;99.90
44170;DHT22;29836;52.286;9.576;2022-11-20T16:11:04;-0.70;99.90
44170;DHT22;29836;52.286;9.576;2022-11-20T16:13:31;-0.70;99.90
44170;DHT22;29836;52.286;9.576;2022-11-20T16:16:28;-0.80;99.90
44170;DHT22;29836;52.286;9.576;2022-11-20T16:18:55;-0.80;99.90
44170;DHT22;29836;52.286;9.576;2022-11-20T16:21:21;-0.80;99.90
44170;DHT22;29836;52.286;9.576;2022-11-20T16:23:52;-0.80;99.90
44170;DHT22;29836;52.286;9.576;2022-11-20T16:26:18;-0.80;99.90
44170;DHT22;29836;52.286;9.576;2022-11-20T16:28:44;-0.80;99.90
44170;DHT22;29836;52.286;9.576;2022-11-20T16:31:12;-0.70;99.90
44170;DHT22;29836;52.286;9.576;2022-11-20T16:33:39;-0.80;99.90
44170;DHT22;29836;52.286;9.576;2022-11-20T16:36:09;-0.80;99.90
44170;DHT22;29836;52.286;9.576;2022-11-20T16:38:35;-0.90;99.90
44170;DHT22;29836;52.286;9.576;2022-11-20T16:41:01;-1.00;99.90
44170;DHT22;29836;52.286;9.576;2022-11-20T16:43:27;-1.10;99.90
44170;DHT22;29836;52.286;9.576;2022-11-20T16:45:52;-1.20;99.90
44170;DHT22;29836;52.286;9.576;2022-11-20T16:48:18;-1.20;99.90
44170;DHT22;29836;52.286;9.576;2022-11-20T16:50:51;-1.30;99.90
44170;DHT22;29836;52.286;9.576;2022-11-20T16:53:19;-1.30;99.90
44170;DHT22;29836;52.286;9.576;2022-11-20T16:55:45;-1.30;99.90
44170;DHT22;29836;52.286;9.576;2022-11-20T16:58:11;-1.30;99.90
44170;DHT22;29836;52.286;9.576;2022-11-20T17:00:38;-1.30;99.90
44170;DHT22;29836;52.286;9.576;2022-11-20T17:03:05;-1.30;99.90
44170;DHT22;29836;52.286;9.576;2022-11-20T17:05:31;-1.30;99.90
44170;DHT22;29836;52.286;9.576;2022-11-20T17:07:57;-1.30;99.90
44170;DHT22;29836;52.286;9.576;2022-11-20T17:10:22;-1.40;99.90
44170;DHT22;29836;52.286;9.576;2022-11-20T17:12:48;-1.40;99.90
44170;DHT22;29836;52.286;9.576;2022-11-20T17:15:13;-1.50;99.90
44170;DHT22;29836;52.286;9.576;2022-11-20T17:17:39;-1.50;99.90
44170;DHT22;29836;52.286;9.576;2022-11-20T17:20:05;-1.70;99.90
44170;DHT22;29836;52.286;9.576;2022-11-20T17:22:31;-1.90;99.90
44170;DHT22;29836;52.286;9.576;2022-11-20T17:24:56;-2.00;99.90
44170;DHT22;29836;52.286;9.576;2022-11-20T17:27:22;-2.10;99.90
44170;DHT22;29836;52.286;9.576;2022-11-20T17:29:48;-2.10;99.90
44170;DHT22;29836;52.286;9.576;2022-11-20T17:32:14;-2.00;99.90
44170;DHT22;29836;52.286;9.576;2022-11-20T17:34:39;-2.00;99.90
44170;DHT22;29836;52.286;9.576;2022-11-20T17:37:05;-1.80;99.90
44170;DHT22;29836;52.286;9.576;2022-11-20T17:39:31;-1.70;99.90
44170;DHT22;29836;52.286;9.576;2022-11-20T17:41:56;-1.60;99.90
44170;DHT22;29836;52.286;9.576;2022-11-20T17:44:40;-1.60;99.90
44170;DHT22;29836;52.286;9.576;2022-11-20T17:47:07;-1.60;99.90
44170;DHT22;29836;52.286;9.576;2022-11-20T17:49:33;-1.50;99.90
44170;DHT22;29836;52.286;9.576;2022-11-20T17:51:58;-1.50;99.90
44170;DHT22;29836;52.286;9.576;2022-11-20T17:54:24;-1.40;99.90